Time;durP1;ratioP1;P1;durP2;ratioP2;P2;SDS_P1;SDS_P2;PMS_P1;PMS_P2;Temp;Humidity;BMP_temperature;BMP_pressure;BME280_temperature;BME280_humidity;BME280_pressure;Samples;Min_cycle;Max_cycle;Signal;HPM_P1;HPM_P2
2021/04/01 00:00:50;;;;;;;18.07;13.13;;;;;;;7.01;100.00;101920.66;5092144;28;20183;-71
2021/04/01 00:03:16;;;;;;;19.77;13.53;;;;;;;6.89;100.00;101928.03;5091671;28;20637;-76
2021/04/01 00:05:42;;;;;;;27.50;13.50;;;;;;;6.85;100.00;101926.41;5093183;28;20408;-78
2021/04/01 00:08:08;;;;;;;19.37;13.27;;;;;;;6.76;100.00;101926.69;5087759;28;20394;-75
2021/04/01 00:10:40;;;;;;;18.23;13.07;;;;;;;6.71;100.00;101925.97;5091028;28;20410;-78
2021/04/01 00:13:06;;;;;;;18.70;13.70;;;;;;;6.60;100.00;101925.47;5086915;28;20402;-70
2021/04/01 00:15:34;;;;;;;17.70;13.83;;;;;;;6.56;100.00;101923.84;5079616;28;20410;-73
2021/04/01 00:17:59;;;;;;;22.23;15.10;;;;;;;6.51;100.00;101921.41;5090455;28;20411;-70
2021/04/01 00:20:25;;;;;;;19.43;13.90;;;;;;;6.44;100.00;101922.47;5090571;28;20467;-68
2021/04/01 00:22:50;;;;;;;17.40;13.40;;;;;;;6.39;100.00;101927.81;5092443;28;20156;-75
2021/04/01 00:25:18;;;;;;;19.40;14.77;;;;;;;6.43;100.00;101925.16;5088640;28;20190;-71
2021/04/01 00:27:44;;;;;;;17.33;13.17;;;;;;;6.35;100.00;101925.38;5092676;28;20152;-74
2021/04/01 00:30:10;;;;;;;20.50;12.93;;;;;;;6.28;100.00;101914.25;5083975;28;20496;-76
2021/04/01 00:32:36;;;;;;;17.00;13.07;;;;;;;6.30;100.00;101915.06;5092492;28;20970;-76
2021/04/01 00:35:03;;;;;;;19.60;13.67;;;;;;;6.36;100.00;101912.28;5081152;28;20441;-75
2021/04/01 00:37:29;;;;;;;19.50;12.57;;;;;;;6.44;100.00;101914.66;5087233;28;20605;-70
2021/04/01 00:39:54;;;;;;;17.80;13.00;;;;;;;6.39;100.00;101914.78;5080631;28;20453;-73
2021/04/01 00:42:20;;;;;;;17.30;12.00;;;;;;;6.34;100.00;101906.22;5083674;28;20589;-74
2021/04/01 00:44:45;;;;;;;16.70;12.97;;;;;;;6.27;100.00;101912.56;5092537;28;20152;-72
2021/04/01 00:47:11;;;;;;;16.83;12.50;;;;;;;6.32;100.00;101905.41;5092057;28;20409;-72
2021/04/01 00:49:38;;;;;;;20.40;12.97;;;;;;;6.32;100.00;101908.03;5091736;28;20234;-72
2021/04/01 00:52:06;;;;;;;17.27;13.10;;;;;;;6.39;100.00;101895.66;5088129;28;20638;-80
2021/04/01 00:54:31;;;;;;;16.17;12.83;;;;;;;6.37;100.00;101898.31;5090563;28;21013;-73
2021/04/01 00:56:57;;;;;;;16.90;13.50;;;;;;;6.31;100.00;101893.28;5076964;28;20394;-78
2021/04/01 00:59:23;;;;;;;17.13;12.80;;;;;;;6.30;100.00;101895.94;5072381;28;20202;-79
2021/04/01 01:01:51;;;;;;;16.30;11.97;;;;;;;6.23;100.00;101887.44;5091724;28;20163;-72
2021/04/01 01:04:18;;;;;;;19.00;13.03;;;;;;;6.09;100.00;101887.00;5092872;28;20911;-79
2021/04/01 01:06:44;;;;;;;17.73;12.80;;;;;;;6.00;100.00;101884.66;5091326;28;20405;-72
2021/04/01 01:09:11;;;;;;;17.80;13.10;;;;;;;5.93;100.00;101880.53;5085079;28;20437;-72
2021/04/01 01:11:38;;;;;;;15.73;12.20;;;;;;;5.89;100.00;101886.69;5083555;28;20413;-73
2021/04/01 01:14:06;;;;;;;18.53;13.30;;;;;;;5.80;100.00;101886.03;5088251;28;20533;-76
2021/04/01 01:16:35;;;;;;;18.80;13.53;;;;;;;5.76;100.00;101888.81;5084500;28;20403;-79
2021/04/01 01:19:03;;;;;;;18.87;13.87;;;;;;;5.70;100.00;101889.81;5088337;28;20402;-77
2021/04/01 01:21:29;;;;;;;19.50;13.37;;;;;;;5.63;100.00;101888.28;5090621;28;20406;-79
2021/04/01 01:23:56;;;;;;;18.43;13.30;;;;;;;5.64;100.00;101895.19;5091194;28;20414;-71
2021/04/01 01:26:21;;;;;;;18.23;13.47;;;;;;;5.62;100.00;101891.78;5092042;28;20163;-77
2021/04/01 01:28:47;;;;;;;20.53;12.70;;;;;;;5.61;100.00;101884.00;5076529;28;20471;-80
2021/04/01 01:31:14;;;;;;;19.87;13.53;;;;;;;5.55;100.00;101885.88;5091371;28;20164;-78
2021/04/01 01:33:44;;;;;;;17.87;13.00;;;;;;;5.52;100.00;101885.97;5089278;28;20514;-75
2021/04/01 01:36:11;;;;;;;17.20;12.83;;;;;;;5.52;100.00;101887.72;5091861;28;20759;-76
2021/04/01 01:38:38;;;;;;;18.20;13.67;;;;;;;5.44;100.00;101879.25;5073328;28;20414;-78
2021/04/01 01:41:04;;;;;;;18.47;14.00;;;;;;;5.40;100.00;101875.88;5085976;28;20416;-78
2021/04/01 01:43:31;;;;;;;20.27;13.07;;;;;;;5.36;100.00;101883.81;5090095;28;20437;-76
2021/04/01 01:45:57;;;;;;;19.33;13.33;;;;;;;5.32;100.00;101871.75;5085041;28;20405;-78
2021/04/01 01:48:22;;;;;;;18.60;12.87;;;;;;;5.32;100.00;101871.75;5072112;28;20406;-72
2021/04/01 01:50:48;;;;;;;17.63;12.43;;;;;;;5.26;100.00;101870.16;5091067;28;20167;-73
2021/04/01 01:53:14;;;;;;;20.13;13.47;;;;;;;5.28;100.00;101876.19;5089925;28;20317;-79
2021/04/01 01:55:40;;;;;;;17.93;12.00;;;;;;;5.26;100.00;101872.78;5091315;28;20166;-79
2021/04/01 01:58:07;;;;;;;17.80;11.30;;;;;;;5.23;100.00;101873.72;5087073;28;20413;-73
2021/04/01 02:00:44;;;;;;;18.33;13.57;;;;;;;5.21;100.00;101870.31;5082861;28;20417;-79
2021/04/01 02:03:12;;;;;;;18.60;12.27;;;;;;;5.26;100.00;101871.03;5091691;28;20412;-79
2021/04/01 02:05:39;;;;;;;22.77;13.17;;;;;;;5.27;100.00;101872.72;5082210;28;20798;-70
2021/04/01 02:08:07;;;;;;;18.20;13.23;;;;;;;5.26;100.00;101868.41;5086044;28;20410;-79
2021/04/01 02:10:35;;;;;;;18.30;12.00;;;;;;;5.24;100.00;101878.03;5090733;28;20413;-76
2021/04/01 02:13:01;;;;;;;17.97;13.13;;;;;;;5.14;100.00;101873.09;5088618;28;20401;-79
2021/04/01 02:15:29;;;;;;;18.70;13.30;;;;;;;5.04;100.00;101872.47;5084505;28;20533;-80
2021/04/01 02:18:18;;;;;;;17.17;12.43;;;;;;;5.07;100.00;101879.38;5078842;28;20908;-71
2021/04/01 02:20:46;;;;;;;21.97;13.50;;;;;;;5.04;100.00;101876.84;5089707;28;20405;-74
2021/04/01 02:23:32;;;;;;;20.13;12.87;;;;;;;5.00;100.00;101882.13;5081483;28;20852;-79
2021/04/01 02:25:58;;;;;;;17.70;12.80;;;;;;;4.97;100.00;101883.94;5076539;28;20464;-72
2021/04/01 02:28:27;;;;;;;17.00;12.30;;;;;;;4.95;100.00;101878.78;5072740;28;20881;-79
2021/04/01 02:30:55;;;;;;;18.70;12.80;;;;;;;4.86;100.00;101878.16;5076515;28;20402;-79
2021/04/01 02:33:23;;;;;;;18.20;12.37;;;;;;;4.90;100.00;101880.63;5084421;28;20454;-77
2021/04/01 02:35:50;;;;;;;19.67;13.77;;;;;;;4.86;100.00;101873.81;5078846;28;20485;-76
2021/04/01 02:38:16;;;;;;;20.37;12.77;;;;;;;4.86;100.00;101878.16;5085959;28;20406;-74
2021/04/01 02:40:42;;;;;;;21.03;12.90;;;;;;;4.79;100.00;101872.25;5084734;28;20931;-80
2021/04/01 02:43:08;;;;;;;20.73;13.27;;;;;;;4.78;100.00;101867.06;5085331;28;20434;-80
2021/04/01 02:45:34;;;;;;;18.40;12.27;;;;;;;4.73;100.00;101870.63;5088239;28;20869;-76
2021/04/01 02:48:00;;;;;;;17.23;12.60;;;;;;;4.70;100.00;101877.69;5089043;28;21010;-74
2021/04/01 02:50:26;;;;;;;20.90;11.90;;;;;;;4.70;100.00;101873.31;5079774;28;20186;-70
2021/04/01 02:52:51;;;;;;;17.70;12.40;;;;;;;4.68;100.00;101874.22;5094863;28;20559;-73
2021/04/01 02:55:17;;;;;;;17.60;11.77;;;;;;;4.69;100.00;101873.38;5093618;28;20537;-71
2021/04/01 02:57:43;;;;;;;16.73;13.00;;;;;;;4.71;100.00;101879.38;5086708;28;20160;-70
2021/04/01 03:00:16;;;;;;;16.73;11.67;;;;;;;4.70;100.00;101875.06;5085230;28;20242;-79
2021/04/01 03:02:46;;;;;;;17.83;13.37;;;;;;;4.65;100.00;101869.13;5092681;28;20481;-77
2021/04/01 03:05:12;;;;;;;16.10;11.87;;;;;;;4.58;100.00;101868.41;5087260;28;20407;-71
2021/04/01 03:07:41;;;;;;;17.50;12.03;;;;;;;4.64;100.00;101875.22;5092948;28;20413;-78
2021/04/01 03:10:08;;;;;;;17.97;12.20;;;;;;;4.60;100.00;101878.75;5093776;28;20410;-72
2021/04/01 03:12:34;;;;;;;17.10;12.37;;;;;;;4.57;100.00;101864.09;5094195;28;20458;-80
2021/04/01 03:15:00;;;;;;;18.03;12.40;;;;;;;4.55;100.00;101872.84;5092884;28;20483;-79
2021/04/01 03:17:25;;;;;;;24.40;13.20;;;;;;;4.55;100.00;101878.91;5093708;28;20422;-71
2021/04/01 03:19:51;;;;;;;19.60;12.60;;;;;;;4.49;100.00;101876.44;5093974;28;20166;-78
2021/04/01 03:22:17;;;;;;;17.40;11.40;;;;;;;4.46;100.00;101873.91;5081177;28;20207;-75
2021/04/01 03:24:42;;;;;;;16.70;12.07;;;;;;;4.41;100.00;101875.75;5073976;28;20156;-75
2021/04/01 03:27:08;;;;;;;17.23;12.73;;;;;;;4.41;100.00;101876.59;5089586;28;20621;-76
2021/04/01 03:29:33;;;;;;;17.87;12.83;;;;;;;4.39;100.00;101878.41;5087732;28;20161;-77
2021/04/01 03:31:59;;;;;;;17.93;12.13;;;;;;;4.37;100.00;101884.50;5087833;28;20171;-79
2021/04/01 03:34:24;;;;;;;20.53;13.03;;;;;;;4.37;100.00;101876.69;5090333;28;20228;-78
2021/04/01 03:36:50;;;;;;;22.70;12.70;;;;;;;4.34;100.00;101884.59;5091594;28;20573;-80
2021/04/01 03:39:16;;;;;;;16.87;12.43;;;;;;;4.34;100.00;101875.03;5093374;28;20152;-78
2021/04/01 03:41:42;;;;;;;19.27;13.03;;;;;;;4.34;100.00;101879.38;5087659;28;20210;-79
2021/04/01 03:44:08;;;;;;;17.23;11.70;;;;;;;4.28;100.00;101877.75;5084449;28;20407;-74
2021/04/01 03:46:35;;;;;;;18.10;11.63;;;;;;;4.28;100.00;101882.97;5087142;28;20155;-78
2021/04/01 03:49:02;;;;;;;16.20;12.13;;;;;;;4.27;100.00;101878.66;5090552;28;20398;-77
2021/04/01 03:51:27;;;;;;;17.20;12.93;;;;;;;4.22;100.00;101880.50;5082840;28;20498;-75
2021/04/01 03:53:52;;;;;;;17.73;11.77;;;;;;;4.21;100.00;101881.38;5073180;28;20473;-76
2021/04/01 03:56:18;;;;;;;19.17;12.70;;;;;;;4.22;100.00;101877.03;5072263;28;20152;-77
2021/04/01 04:09:27;;;;;;;23.57;14.07;;;;;;;4.20;100.00;101886.63;5092399;28;20527;-72
2021/04/01 04:14:34;;;;;;;21.83;13.00;;;;;;;4.22;100.00;101890.03;5092862;28;20456;-72
2021/04/01 04:17:00;;;;;;;19.80;13.70;;;;;;;4.25;100.00;101888.25;5088561;28;20438;-74
2021/04/01 04:19:25;;;;;;;21.47;14.23;;;;;;;4.28;100.00;101897.72;5082215;28;20417;-70
2021/04/01 04:21:51;;;;;;;28.97;16.17;;;;;;;4.26;100.00;101895.16;5072462;28;20172;-72
2021/04/01 04:24:16;;;;;;;20.87;14.50;;;;;;;4.27;100.00;101896.00;5072532;28;20156;-79
2021/04/01 04:26:42;;;;;;;17.90;12.70;;;;;;;4.36;100.00;101888.00;5074275;28;20152;-72
2021/04/01 04:29:08;;;;;;;19.67;13.17;;;;;;;4.41;100.00;101886.16;5092515;28;20208;-70
2021/04/01 04:31:33;;;;;;;20.87;13.20;;;;;;;4.44;100.00;101886.94;5089149;28;20259;-73
2021/04/01 04:33:58;;;;;;;20.03;12.60;;;;;;;4.48;100.00;101895.53;5092251;28;20261;-76
2021/04/01 04:36:24;;;;;;;19.70;13.10;;;;;;;4.50;100.00;101888.53;5092666;28;20602;-76
2021/04/01 04:38:49;;;;;;;19.40;13.10;;;;;;;4.59;100.00;101890.94;5092001;28;20191;-78
2021/04/01 04:41:15;;;;;;;23.20;14.37;;;;;;;4.64;100.00;101885.63;5091746;28;20199;-68
2021/04/01 04:43:40;;;;;;;19.20;13.60;;;;;;;4.71;100.00;101887.19;5092292;28;20171;-70
2021/04/01 04:46:06;;;;;;;16.30;11.40;;;;;;;4.78;100.00;101888.75;5091493;28;20262;-76
2021/04/01 04:48:31;;;;;;;18.23;13.60;;;;;;;4.77;100.00;101888.81;5090299;28;20166;-77
2021/04/01 04:50:57;;;;;;;20.93;13.50;;;;;;;4.86;100.00;101888.56;5085797;28;20642;-71
2021/04/01 04:53:24;;;;;;;19.80;13.70;;;;;;;4.93;100.00;101895.34;5091750;28;20171;-67
2021/04/01 04:58:34;;;;;;;19.37;12.20;;;;;;;5.12;100.00;101886.16;5088565;28;20443;-70
2021/04/01 05:01:08;;;;;;;21.67;13.10;;;;;;;5.14;100.00;101888.72;5090105;28;20731;-71
2021/04/01 05:09:15;;;;;;;19.07;12.83;;;;;;;5.61;100.00;101879.66;5077306;28;20443;-68
2021/04/01 05:11:41;;;;;;;19.57;12.00;;;;;;;5.95;100.00;101883.94;5090786;28;20415;-75
2021/04/01 05:14:06;;;;;;;16.47;11.23;;;;;;;6.18;100.00;101872.81;5111141;28;20233;-69
2021/04/01 05:16:32;;;;;;;18.40;12.90;;;;;;;6.27;100.00;101875.13;5096318;28;20161;-67
2021/04/01 05:19:00;;;;;;;18.47;12.73;;;;;;;6.28;100.00;101867.28;5081578;28;20214;-68
2021/04/01 05:21:33;;;;;;;20.33;13.37;;;;;;;6.33;100.00;101877.56;5091391;28;20159;-69
2021/04/01 05:24:03;;;;;;;24.83;12.63;;;;;;;6.50;100.00;101866.59;5091164;28;20939;-69
2021/04/01 05:29:20;;;;;;;16.40;12.87;;;;;;;6.91;100.00;101866.13;5091342;28;20398;-68
2021/04/01 05:31:48;;;;;;;17.87;10.90;;;;;;;6.84;100.00;101866.38;5088466;28;20413;-78
2021/04/01 05:34:13;;;;;;;15.53;11.40;;;;;;;6.98;100.00;101865.91;5078324;28;20469;-73
2021/04/01 05:36:40;;;;;;;20.47;12.47;;;;;;;7.03;100.00;101866.59;5092553;28;20830;-71
2021/04/01 05:39:10;;;;;;;15.77;11.67;;;;;;;6.92;100.00;101862.59;5091140;28;20154;-71
2021/04/01 05:41:36;;;;;;;16.70;12.83;;;;;;;6.89;100.00;101875.78;5090786;28;20434;-71
2021/04/01 05:44:11;;;;;;;19.97;11.70;;;;;;;6.88;100.00;101878.44;5088929;28;20813;-76
2021/04/01 05:46:42;;;;;;;21.23;13.20;;;;;;;6.89;100.00;101870.56;5089076;28;20409;-75
2021/04/01 05:49:41;;;;;;;19.90;13.83;;;;;;;6.98;100.00;101873.75;5068704;28;20407;-68
2021/04/01 06:02:27;;;;;;;21.73;12.10;;;;;;;7.07;100.00;101892.59;5090440;28;20406;-73
2021/04/01 06:05:04;;;;;;;15.57;10.87;;;;;;;7.13;100.00;101895.00;5090158;28;20414;-72
2021/04/01 06:07:36;;;;;;;16.33;11.90;;;;;;;7.11;100.00;101896.81;5075416;28;20403;-66
2021/04/01 06:10:03;;;;;;;16.67;11.07;;;;;;;7.17;100.00;101895.72;5094117;28;20915;-68
2021/04/01 06:12:32;;;;;;;18.60;13.70;;;;;;;7.45;100.00;101898.25;5093748;28;20947;-75
2021/04/01 06:15:14;;;;;;;15.30;10.83;;;;;;;7.82;100.00;101892.56;5094704;28;20456;-71
2021/04/01 06:17:47;;;;;;;21.10;11.30;;;;;;;8.14;100.00;101888.75;5094170;28;20796;-73
2021/04/01 06:20:14;;;;;;;17.23;11.53;;;;;;;8.51;100.00;101882.13;5094356;28;20401;-78
2021/04/01 06:22:41;;;;;;;19.17;9.87;;;;;;;8.46;100.00;101882.28;5094882;28;20409;-77
2021/04/01 06:25:15;;;;;;;14.93;10.67;;;;;;;8.26;100.00;101885.66;5094772;28;20872;-76
2021/04/01 06:27:51;;;;;;;13.60;11.30;;;;;;;8.13;100.00;101884.41;5094359;28;20429;-78
2021/04/01 06:32:51;;;;;;;16.77;10.83;;;;;;;8.21;100.00;101881.50;5090945;28;20975;-80
2021/04/01 06:40:49;;;;;;;14.80;10.50;;;;;;;8.81;100.00;101886.13;5090060;28;20945;-71
2021/04/01 06:43:17;;;;;;;15.50;10.87;;;;;;;9.02;100.00;101889.63;5092837;28;20405;-74
2021/04/01 06:46:09;;;;;;;11.80;8.97;;;;;;;9.15;100.00;101879.50;5094328;28;20459;-72
2021/04/01 06:51:30;;;;;;;12.80;9.50;;;;;;;9.40;100.00;101876.66;5079351;28;20402;-75
2021/04/01 06:59:47;;;;;;;15.00;10.77;;;;;;;9.41;100.00;101886.22;5093218;28;20417;-78
2021/04/01 07:02:23;;;;;;;13.30;9.23;;;;;;;9.51;100.00;101879.66;5095703;28;20838;-75
2021/04/01 07:04:52;;;;;;;11.50;8.83;;;;;;;9.60;100.00;101881.88;5093662;28;20380;-77
2021/04/01 07:07:20;;;;;;;12.53;10.13;;;;;;;9.73;100.00;101876.91;5091275;28;20405;-77
2021/04/01 07:10:25;;;;;;;14.70;9.63;;;;;;;9.86;100.00;101875.47;5093239;28;20417;-79
2021/04/01 07:12:58;;;;;;;12.40;9.00;;;;;;;10.06;100.00;101878.97;5084983;28;20801;-80
2021/04/01 07:15:26;;;;;;;13.50;9.57;;;;;;;10.54;100.00;101878.44;5097123;28;20440;-81
2021/04/01 07:18:09;;;;;;;13.00;10.23;;;;;;;11.06;100.00;101871.47;5098594;28;21018;-80
2021/04/01 07:20:50;;;;;;;13.50;8.40;;;;;;;11.27;100.00;101864.25;5094401;28;20427;-78
2021/04/01 07:48:03;;;;;;;8.87;7.33;;;;;;;11.69;100.00;101855.03;5093435;28;20512;-75
2021/04/01 07:50:41;;;;;;;12.13;9.10;;;;;;;11.53;100.00;101855.00;5089772;28;20417;-75
2021/04/01 07:53:10;;;;;;;10.37;8.07;;;;;;;11.38;100.00;101848.75;5087988;28;20842;-82
2021/04/01 07:56:15;;;;;;;13.93;7.70;;;;;;;11.62;100.00;101849.22;5091798;28;20961;-75
2021/04/01 08:04:08;;;;;;;11.23;8.10;;;;;;;11.50;100.00;101854.31;5111122;28;20432;-81
2021/04/01 08:06:35;;;;;;;8.90;6.33;;;;;;;11.33;100.00;101853.38;5094289;28;20456;-75
2021/04/01 08:09:07;;;;;;;11.67;7.53;;;;;;;11.50;100.00;101843.78;5092411;28;20482;-80
2021/04/01 08:11:42;;;;;;;8.90;7.77;;;;;;;11.61;100.00;101837.00;5093976;28;20503;-80
2021/04/01 08:14:23;;;;;;;11.13;8.20;;;;;;;11.60;100.00;101837.94;5101047;28;20562;-82
2021/04/01 08:16:55;;;;;;;9.20;7.23;;;;;;;11.67;100.00;101835.84;5095861;28;20473;-80
2021/04/01 08:19:24;;;;;;;9.17;6.50;;;;;;;11.87;100.00;101827.75;5099050;28;20450;-81
2021/04/01 08:21:52;;;;;;;11.13;7.60;;;;;;;11.56;100.00;101836.41;5104945;28;20429;-79
2021/04/01 08:24:23;;;;;;;15.20;8.37;;;;;;;11.58;100.00;101837.19;5091579;28;21315;-82
2021/04/01 08:35:47;;;;;;;8.93;7.13;;;;;;;12.08;100.00;101846.78;5002412;28;20530;-83
2021/04/01 08:38:15;;;;;;;12.60;7.20;;;;;;;12.21;100.00;101842.53;5058922;28;20595;-76
2021/04/01 08:40:42;;;;;;;7.20;6.20;;;;;;;12.05;100.00;101840.84;5089748;28;20421;-85
2021/04/01 08:43:41;;;;;;;7.10;6.20;;;;;;;12.15;100.00;101842.00;5089986;28;20422;-81
2021/04/01 08:46:35;;;;;;;10.20;7.60;;;;;;;11.96;100.00;101836.94;5119150;27;20426;-80
2021/04/01 08:49:09;;;;;;;10.30;8.27;;;;;;;11.83;100.00;101842.00;5089546;28;20421;-85
2021/04/01 08:52:13;;;;;;;9.50;6.33;;;;;;;11.89;100.00;101832.94;5084637;28;20450;-80
2021/04/01 08:54:58;;;;;;;10.50;7.67;;;;;;;12.09;100.00;101832.69;5107411;28;20457;-82
2021/04/01 08:57:47;;;;;;;10.83;7.40;;;;;;;12.29;100.00;101833.34;5098197;28;20899;-81
2021/04/01 09:00:14;;;;;;;11.53;7.60;;;;;;;12.40;100.00;101837.09;5088708;28;20432;-80
2021/04/01 09:02:47;;;;;;;10.27;6.70;;;;;;;12.48;100.00;101828.75;5099593;28;20487;-84
2021/04/01 09:05:13;;;;;;;13.83;7.80;;;;;;;12.76;100.00;101835.88;5087382;28;20437;-81
2021/04/01 09:07:48;;;;;;;10.53;6.27;;;;;;;12.66;100.00;101832.09;5089499;28;20417;-80
2021/04/01 09:10:20;;;;;;;14.40;7.93;;;;;;;12.88;100.00;101827.28;5084482;28;20478;-81
2021/04/01 09:12:57;;;;;;;7.80;6.50;;;;;;;13.06;100.00;101836.72;5091787;28;20410;-81
2021/04/01 09:17:49;;;;;;;9.83;7.70;;;;;;;12.81;100.00;101820.66;5088815;28;20923;-79
2021/04/01 09:20:18;;;;;;;9.03;8.13;;;;;;;13.02;100.00;101827.31;5091718;28;20922;-83
2021/04/01 09:22:46;;;;;;;12.90;8.30;;;;;;;13.32;100.00;101826.44;5090858;28;20655;-79
2021/04/01 09:25:15;;;;;;;13.20;8.60;;;;;;;13.44;100.00;101817.75;5090711;28;20420;-84
2021/04/01 09:28:01;;;;;;;9.87;8.07;;;;;;;13.10;100.00;101815.44;5089483;28;20451;-80
2021/04/01 09:30:27;;;;;;;9.33;7.03;;;;;;;13.27;100.00;101816.16;5090087;28;20410;-82
2021/04/01 09:32:57;;;;;;;11.77;7.57;;;;;;;13.58;100.00;101815.09;5091181;28;20465;-80
2021/04/01 09:35:25;;;;;;;10.83;8.53;;;;;;;13.63;100.00;101819.28;5089079;28;20230;-83
2021/04/01 09:38:00;;;;;;;10.00;8.00;;;;;;;13.30;100.00;101820.41;5089326;28;20413;-81
2021/04/01 09:40:32;;;;;;;13.30;8.67;;;;;;;13.09;100.00;101824.31;5088677;28;20397;-82
2021/04/01 09:43:26;;;;;;;12.10;7.93;;;;;;;13.52;100.00;101815.47;5088883;28;20406;-84
2021/04/01 09:45:58;;;;;;;8.93;6.80;;;;;;;14.27;100.00;101805.44;5069359;28;20434;-81
2021/04/01 09:48:59;;;;;;;14.30;7.30;;;;;;;14.76;100.00;101811.97;5088586;28;20965;-83
2021/04/01 09:51:57;;;;;;;11.27;8.20;;;;;;;14.97;100.00;101802.59;5090827;28;20405;-84
2021/04/01 09:54:26;;;;;;;12.93;9.80;;;;;;;15.23;100.00;101795.50;5073437;28;20447;-79
2021/04/01 09:56:56;;;;;;;11.70;9.67;;;;;;;14.53;100.00;101798.47;5070009;28;20411;-81
2021/04/01 09:59:53;;;;;;;11.40;8.93;;;;;;;14.85;100.00;101798.13;5091427;28;20467;-79
2021/04/01 10:03:04;;;;;;;13.37;10.50;;;;;;;15.49;100.00;101789.22;5094378;28;20414;-85
2021/04/01 10:05:42;;;;;;;9.80;7.90;;;;;;;16.59;98.48;101783.00;5001918;28;20837;-83
2021/04/01 10:08:10;;;;;;;10.90;8.60;;;;;;;17.24;93.94;101779.78;5091997;28;20452;-83
2021/04/01 10:10:50;;;;;;;10.30;9.10;;;;;;;17.83;90.98;101771.53;5092347;28;20447;-81
2021/04/01 10:16:50;;;;;;;;;;;;;;;;;;;;;
2021/04/01 10:25:53;;;;;;;8.50;7.50;;;;;;;18.35;83.54;101747.81;5087736;28;20467;-80
2021/04/01 10:28:38;;;;;;;10.60;7.60;;;;;;;18.37;82.25;101751.22;5091192;28;20972;-86
2021/04/01 10:31:13;;;;;;;8.70;7.63;;;;;;;18.69;79.94;101743.19;5090736;28;20619;-84
2021/04/01 10:34:25;;;;;;;9.27;7.50;;;;;;;19.43;77.24;101735.00;5084583;28;20507;-88
2021/04/01 10:36:53;;;;;;;7.60;6.77;;;;;;;20.00;74.57;101736.97;5069762;28;20845;-81
2021/04/01 10:39:33;;;;;;;12.07;8.60;;;;;;;19.18;76.88;101736.28;5090691;28;20928;-85
2021/04/01 10:42:00;;;;;;;10.13;7.63;;;;;;;19.11;77.98;101736.81;5090165;28;20429;-80
2021/04/01 10:44:35;;;;;;;11.50;7.77;;;;;;;19.16;77.84;101732.94;5089273;28;20460;-87
2021/04/01 10:47:04;;;;;;;10.03;7.77;;;;;;;20.32;75.66;101725.16;5090216;28;20443;-82
2021/04/01 10:49:35;;;;;;;8.93;7.40;;;;;;;20.14;71.72;101725.88;5090766;28;20390;-85
2021/04/01 10:52:03;;;;;;;8.97;8.03;;;;;;;20.18;73.16;101724.63;5090786;28;20459;-87
2021/04/01 10:54:41;;;;;;;8.30;7.27;;;;;;;20.72;72.64;101722.34;5094142;28;20755;-85
2021/04/01 10:57:09;;;;;;;8.80;6.43;;;;;;;21.12;69.33;101706.03;5102735;28;20424;-82
2021/04/01 10:59:48;;;;;;;10.80;6.87;;;;;;;20.81;67.16;101705.44;5094219;28;20953;-84
2021/04/01 11:02:17;;;;;;;7.80;6.23;;;;;;;22.03;63.71;101703.38;5093090;28;20425;-80
2021/04/01 11:04:57;;;;;;;8.27;5.73;;;;;;;21.91;59.57;101694.72;5091602;28;20480;-84
2021/04/01 11:07:32;;;;;;;8.80;6.97;;;;;;;21.82;59.81;101693.81;5094983;28;20501;-83
2021/04/01 11:09:59;;;;;;;8.30;7.50;;;;;;;22.51;57.30;101686.03;5102719;28;20987;-81
2021/04/01 11:12:31;;;;;;;7.00;5.90;;;;;;;22.59;56.68;101676.22;5092228;28;20420;-81
2021/04/01 11:15:07;;;;;;;10.63;6.70;;;;;;;24.07;53.34;101673.91;5082344;28;20414;-82
2021/04/01 11:17:49;;;;;;;8.60;6.40;;;;;;;23.53;53.54;101678.84;5090966;28;21017;-88
2021/04/01 11:20:22;;;;;;;13.03;8.07;;;;;;;23.41;53.81;101663.22;5090565;28;20401;-86
2021/04/01 11:23:19;;;;;;;8.73;6.50;;;;;;;23.39;51.89;101665.22;5092217;28;20402;-84
2021/04/01 11:25:53;;;;;;;8.47;6.60;;;;;;;23.56;52.70;101661.56;5091267;28;20452;-87
2021/04/01 11:28:42;;;;;;;8.97;7.17;;;;;;;23.92;52.87;101648.75;5100232;28;20794;-90
2021/04/01 11:31:09;;;;;;;8.60;7.43;;;;;;;24.65;51.17;101642.47;5092950;28;20410;-84
2021/04/01 11:33:37;;;;;;;8.30;6.70;;;;;;;24.38;53.10;101643.69;5092994;28;20480;-82
2021/04/01 11:36:16;;;;;;;10.03;7.70;;;;;;;25.32;52.30;101634.81;5108165;28;20456;-84
2021/04/01 11:38:46;;;;;;;7.70;6.70;;;;;;;25.44;51.10;101637.94;5088559;28;20421;-85
2021/04/01 11:41:14;;;;;;;9.10;6.30;;;;;;;25.30;50.41;101634.13;5104779;28;20452;-84
2021/04/01 11:43:39;;;;;;;9.30;7.03;;;;;;;24.07;54.13;101624.75;5079482;28;20437;-86
2021/04/01 11:46:12;;;;;;;8.73;7.63;;;;;;;23.42;58.37;101640.75;5087931;28;20413;-81
2021/04/01 11:48:39;;;;;;;15.53;9.27;;;;;;;24.41;57.54;101629.06;5091202;28;20611;-84
2021/04/01 11:51:07;;;;;;;11.00;6.97;;;;;;;25.28;54.95;101629.97;5091639;28;20398;-83
2021/04/01 11:53:33;;;;;;;12.90;10.07;;;;;;;25.50;53.25;101625.63;5084987;28;20413;-79
2021/04/01 11:55:59;;;;;;;8.33;6.97;;;;;;;24.76;53.74;101625.97;5083670;28;20422;-84
2021/04/01 11:58:30;;;;;;;8.47;6.43;;;;;;;24.93;53.76;101624.03;5092679;28;20222;-85
2021/04/01 12:01:32;;;;;;;9.33;6.67;;;;;;;23.58;56.92;101630.06;5089991;28;20577;-85
2021/04/01 12:04:02;;;;;;;8.90;7.40;;;;;;;22.50;60.79;101639.66;5090135;28;20881;-81
2021/04/01 12:06:29;;;;;;;8.93;7.97;;;;;;;21.27;65.11;101637.75;5092724;28;20377;-86
2021/04/01 12:08:56;;;;;;;8.93;7.70;;;;;;;20.27;69.81;101636.69;5093683;28;20453;-82
2021/04/01 12:11:23;;;;;;;8.73;6.93;;;;;;;19.98;73.46;101632.22;5092731;28;20409;-82
2021/04/01 12:13:48;;;;;;;8.67;7.53;;;;;;;18.78;79.93;101643.88;5093021;28;20966;-82
2021/04/01 12:16:23;;;;;;;10.37;8.17;;;;;;;18.67;84.51;101638.66;5092125;28;20414;-83
2021/04/01 12:18:50;;;;;;;8.10;7.30;;;;;;;18.52;82.49;101630.97;5095758;28;20272;-87
2021/04/01 12:21:18;;;;;;;11.80;9.40;;;;;;;18.69;88.05;101632.22;5109337;28;20562;-85
2021/04/01 12:23:49;;;;;;;11.13;8.40;;;;;;;19.35;89.72;101631.72;5095255;28;20410;-81
2021/04/01 12:26:15;;;;;;;8.77;7.60;;;;;;;19.20;88.78;101620.63;5091767;28;20482;-79
2021/04/01 12:28:41;;;;;;;12.33;9.00;;;;;;;20.13;84.30;101620.13;5089559;28;20414;-78
2021/04/01 12:31:12;;;;;;;11.50;9.30;;;;;;;20.90;79.04;101608.38;5090484;28;20164;-80
2021/04/01 12:33:49;;;;;;;10.73;7.23;;;;;;;21.79;74.87;101605.81;5091811;28;20468;-77
2021/04/01 12:36:16;;;;;;;8.57;7.63;;;;;;;22.19;71.33;101601.81;5091689;28;20413;-77
2021/04/01 12:38:46;;;;;;;9.67;7.50;;;;;;;23.45;66.88;101587.63;5091162;28;20479;-78
2021/04/01 12:41:30;;;;;;;8.60;7.23;;;;;;;23.08;66.31;101598.75;5090982;28;20433;-78
2021/04/01 12:43:57;;;;;;;9.83;7.60;;;;;;;22.41;67.79;101598.59;5091157;28;20406;-79
2021/04/01 12:46:23;;;;;;;15.53;7.90;;;;;;;20.65;73.18;101603.72;5089937;28;20417;-78
2021/04/01 12:48:54;;;;;;;9.50;7.37;;;;;;;20.71;74.12;101598.63;5091558;28;21021;-80
2021/04/01 12:51:21;;;;;;;10.87;8.10;;;;;;;21.32;71.46;101592.69;5090362;28;20472;-78
2021/04/01 12:54:05;;;;;;;8.60;6.67;;;;;;;22.48;67.19;101592.63;5089326;28;20446;-83
2021/04/01 12:56:41;;;;;;;7.60;6.67;;;;;;;22.68;65.16;101596.75;5091283;28;20413;-80
2021/04/01 12:59:28;;;;;;;8.03;6.90;;;;;;;22.90;64.42;101590.00;5091131;28;20599;-74
2021/04/01 13:02:00;;;;;;;7.83;6.80;;;;;;;23.16;62.88;101584.53;5088635;28;20490;-74
2021/04/01 13:04:26;;;;;;;9.53;7.63;;;;;;;23.29;61.72;101582.22;5091218;28;20433;-74
2021/04/01 13:11:49;;;;;;;8.37;6.47;;;;;;;21.91;63.33;101582.31;5086574;28;20176;-75
2021/04/01 13:14:15;;;;;;;12.77;6.87;;;;;;;20.30;68.94;101585.66;5087864;28;20420;-78
2021/04/01 13:16:41;;;;;;;9.50;7.07;;;;;;;18.30;78.40;101585.91;5087472;28;20743;-79
2021/04/01 13:19:09;;;;;;;12.80;7.90;;;;;;;18.05;82.45;101592.44;5089360;28;20414;-78